createdAt,value
2023-04-01T00:01:50.628Z,10.45
2023-04-01T00:04:17.942Z,10.37
2023-04-01T00:06:44.890Z,10.35
2023-04-01T00:09:11.847Z,10.31
2023-04-01T00:11:38.795Z,10.28
2023-04-01T00:14:06.361Z,10.25
2023-04-01T00:16:33.543Z,10.20
2023-04-01T00:19:01.360Z,10.16
2023-04-01T00:21:28.376Z,10.11
2023-04-01T00:23:55.353Z,10.03
2023-04-01T00:26:23.111Z,9.93
2023-04-01T00:28:51.166Z,9.84
2023-04-01T00:31:18.447Z,9.71
2023-04-01T00:33:45.899Z,9.55
2023-04-01T00:36:18.630Z,9.47
2023-04-01T00:38:47.271Z,9.37
2023-04-01T00:41:16.943Z,9.29
2023-04-01T00:43:47.626Z,9.27
2023-04-01T00:46:15.052Z,9.22
2023-04-01T00:48:56.477Z,9.17
2023-04-01T00:51:27.074Z,9.15
2023-04-01T00:53:56.978Z,9.12
2023-04-01T00:56:28.807Z,9.09
2023-04-01T00:59:09.641Z,9.04
2023-04-01T01:01:37.775Z,9.05
2023-04-01T01:04:05.157Z,8.97
2023-04-01T01:06:44.272Z,8.99
2023-04-01T01:09:29.813Z,9.03
2023-04-01T01:12:24.779Z,9.02
2023-04-01T01:14:54.893Z,9.07
2023-04-01T01:17:28.222Z,9.11
2023-04-01T01:20:27.075Z,9.13
2023-04-01T01:23:32.229Z,9.17
2023-04-01T01:26:17.658Z,9.23
2023-04-01T01:29:06.153Z,9.26
2023-04-01T01:32:04.837Z,9.26
2023-04-01T01:34:48.192Z,9.29
2023-04-01T01:37:18.810Z,9.31
2023-04-01T01:39:55.798Z,9.28
2023-04-01T01:42:26.965Z,9.32
2023-04-01T01:44:58.289Z,9.32
2023-04-01T01:47:26.856Z,9.34
2023-04-01T01:49:55.599Z,9.37
2023-04-01T01:52:25.580Z,9.42
2023-04-01T01:54:55.956Z,9.47
2023-04-01T01:57:33.183Z,9.50
2023-04-01T02:00:14.050Z,9.52
2023-04-01T02:02:46.044Z,9.55
2023-04-01T02:05:20.262Z,9.54
2023-04-01T02:07:55.229Z,9.61
2023-04-01T02:10:26.748Z,9.63
2023-04-01T02:12:59.196Z,9.65
2023-04-01T02:15:32.026Z,9.66
2023-04-01T02:17:59.530Z,9.65
2023-04-01T02:20:30.210Z,9.68
2023-04-01T02:23:00.972Z,9.68
2023-04-01T02:25:32.215Z,9.67
2023-04-01T02:28:01.623Z,9.52
2023-04-01T02:30:30.281Z,9.67
2023-04-01T02:32:59.145Z,9.66
2023-04-01T02:35:26.976Z,9.66
2023-04-01T02:37:55.580Z,9.73
2023-04-01T02:40:23.548Z,9.76
2023-04-01T02:42:50.596Z,9.78
2023-04-01T02:45:17.603Z,9.76
2023-04-01T02:47:44.663Z,9.78
2023-04-01T02:50:15.382Z,9.77
2023-04-01T02:52:42.350Z,9.65
2023-04-01T02:55:09.861Z,9.68
2023-04-01T02:57:37.110Z,9.62
2023-04-01T03:00:04.412Z,9.61
2023-04-01T03:02:31.654Z,9.53
2023-04-01T03:04:58.619Z,9.47
2023-04-01T03:07:26.002Z,9.40
2023-04-01T03:09:53.056Z,9.41
2023-04-01T03:12:21.085Z,9.37
2023-04-01T03:14:51.482Z,9.40
2023-04-01T03:17:18.619Z,9.38
2023-04-01T03:19:46.378Z,9.37
2023-04-01T03:22:14.325Z,9.38
2023-04-01T03:24:41.528Z,9.30
2023-04-01T03:27:08.462Z,9.31
2023-04-01T03:29:35.708Z,9.25
2023-04-01T03:32:03.137Z,9.34
2023-04-01T03:34:30.050Z,9.44
2023-04-01T03:36:57.439Z,9.52
2023-04-01T03:39:24.489Z,9.62
2023-04-01T03:41:51.443Z,9.55
2023-04-01T03:44:18.395Z,9.46
2023-04-01T03:46:48.778Z,9.42
2023-04-01T03:49:16.094Z,9.34
2023-04-01T03:51:44.705Z,9.31
2023-04-01T03:54:12.607Z,9.31
2023-04-01T03:56:39.888Z,9.31
2023-04-01T03:59:08.906Z,9.35
2023-04-01T04:01:36.109Z,9.33
2023-04-01T04:04:03.559Z,9.36
2023-04-01T04:06:30.810Z,9.35
2023-04-01T04:08:58.252Z,9.39
2023-04-01T04:11:25.377Z,9.44
2023-04-01T04:13:54.423Z,9.44
2023-04-01T04:16:22.749Z,9.56
2023-04-01T04:18:56.997Z,9.57
2023-04-01T04:21:24.096Z,9.55
2023-04-01T04:23:51.874Z,9.54
2023-04-01T04:26:20.303Z,9.55
2023-04-01T04:28:59.572Z,9.50
2023-04-01T05:29:28.123Z,8.93
2023-04-01T05:32:03.105Z,8.96
2023-04-01T05:34:30.077Z,9.05
2023-04-01T05:36:57.251Z,9.02
2023-04-01T05:39:24.757Z,9.14
2023-04-01T05:41:51.687Z,9.25
2023-04-01T05:44:19.181Z,9.38
2023-04-01T05:47:15.053Z,9.57
2023-04-01T05:49:42.028Z,9.69
2023-04-01T05:52:09.354Z,9.87
2023-04-01T05:54:37.087Z,9.99
2023-04-01T05:57:04.393Z,10.15
2023-04-01T05:59:32.560Z,10.34
2023-04-01T06:02:00.247Z,10.48
2023-04-01T06:04:33.785Z,10.71
2023-04-01T06:07:01.408Z,10.90
2023-04-01T06:09:31.631Z,10.99
2023-04-01T06:12:08.106Z,11.11
2023-04-01T06:15:20.285Z,11.23
2023-04-01T06:18:16.987Z,11.40
2023-04-01T06:21:29.266Z,11.53
2023-04-01T06:24:32.719Z,11.64
2023-04-01T06:27:30.900Z,11.73
2023-04-01T06:30:32.953Z,11.81
2023-04-01T06:33:11.304Z,11.88
2023-04-01T06:36:06.972Z,11.89
2023-04-01T06:38:58.323Z,11.95
2023-04-01T06:41:39.930Z,12.02
2023-04-01T06:44:36.545Z,12.08
2023-04-01T06:47:56.769Z,12.16
2023-04-01T06:50:59.184Z,12.12
2023-04-01T06:54:10.852Z,12.11
2023-04-01T06:57:18.385Z,12.06
2023-04-01T06:59:45.964Z,11.99
2023-04-01T07:02:27.157Z,11.96
2023-04-01T07:04:56.958Z,12.02
2023-04-01T07:07:46.052Z,12.04
2023-04-01T07:10:20.835Z,12.07
2023-04-01T07:13:13.040Z,12.13
2023-04-01T07:16:37.754Z,12.22
2023-04-01T07:19:22.217Z,12.26
2023-04-01T07:22:31.142Z,12.41
2023-04-01T07:25:40.930Z,12.43
2023-04-01T07:28:35.287Z,12.40
2023-04-01T07:31:25.372Z,12.16
2023-04-01T07:33:58.236Z,12.25
2023-04-01T07:36:57.297Z,12.36
2023-04-01T07:39:30.358Z,12.37
2023-04-01T07:42:29.638Z,12.24
2023-04-01T07:45:27.022Z,12.35
2023-04-01T07:48:09.485Z,12.47
2023-04-01T07:50:57.690Z,12.54
2023-04-01T07:53:50.690Z,12.63
2023-04-01T07:56:34.299Z,12.66
2023-04-01T07:59:16.369Z,12.67
2023-04-01T08:02:04.687Z,12.61
2023-04-01T08:05:13.103Z,12.70
2023-04-01T08:08:00.433Z,12.76
2023-04-01T08:11:23.399Z,12.89
2023-04-01T08:14:11.803Z,12.97
2023-04-01T08:17:32.437Z,13.09
2023-04-01T08:20:19.468Z,13.09
2023-04-01T08:22:51.824Z,13.10
2023-04-01T08:25:30.670Z,13.23
2023-04-01T08:28:04.869Z,13.33
2023-04-01T08:30:39.335Z,13.41
2023-04-01T08:33:32.111Z,13.55
2023-04-01T08:36:17.263Z,13.74
2023-04-01T08:39:56.273Z,14.04
2023-04-01T08:42:42.765Z,14.45
2023-04-01T08:45:37.244Z,14.85
2023-04-01T08:48:20.719Z,15.07
2023-04-01T08:51:08.291Z,15.29
2023-04-01T08:53:41.148Z,15.55
2023-04-01T08:56:21.997Z,15.88
2023-04-01T08:59:09.459Z,16.33
2023-04-01T09:02:00.180Z,16.72
2023-04-01T09:05:01.025Z,16.90
2023-04-01T09:07:52.866Z,16.89
2023-04-01T09:10:42.488Z,16.70
2023-04-01T09:14:10.800Z,16.59
2023-04-01T09:16:44.239Z,16.46
2023-04-01T09:19:38.812Z,16.29
2023-04-01T09:22:11.819Z,16.36
2023-04-01T09:24:59.511Z,16.33
2023-04-01T09:27:57.502Z,16.23
2023-04-01T09:30:34.561Z,16.26
2023-04-01T09:33:20.101Z,16.30
2023-04-01T09:35:48.831Z,16.40
2023-04-01T09:38:30.823Z,16.44
2023-04-01T09:41:26.657Z,16.43
2023-04-01T09:44:16.659Z,16.44
2023-04-01T09:47:44.712Z,16.80
2023-04-01T09:50:37.993Z,17.20
2023-04-01T09:53:15.759Z,17.50
2023-04-01T09:56:01.449Z,17.92
2023-04-01T09:58:43.975Z,18.33
2023-04-01T10:01:48.385Z,18.25
2023-04-01T10:04:46.270Z,18.28
2023-04-01T10:07:33.665Z,17.97
2023-04-01T10:10:51.979Z,17.80
2023-04-01T10:13:51.785Z,17.98
2023-04-01T10:16:54.388Z,17.94
2023-04-01T10:19:41.814Z,17.74
2023-04-01T10:22:45.280Z,17.78
2023-04-01T10:25:57.436Z,17.67
2023-04-01T10:28:43.788Z,17.58
2023-04-01T10:32:05.612Z,17.53
2023-04-01T10:34:54.555Z,17.48
2023-04-01T10:37:43.454Z,17.28
2023-04-01T10:40:32.375Z,17.23
2023-04-01T10:43:48.492Z,17.19
2023-04-01T10:46:34.613Z,17.13
2023-04-01T10:49:07.953Z,16.94
2023-04-01T10:51:58.349Z,16.85
2023-04-01T10:55:04.420Z,16.72
2023-04-01T10:58:08.136Z,16.60
2023-04-01T11:01:26.098Z,16.57
2023-04-01T11:04:30.570Z,16.56
2023-04-01T11:07:31.443Z,16.53
2023-04-01T11:10:17.259Z,16.46
2023-04-01T11:13:13.910Z,16.51
2023-04-01T11:16:18.655Z,16.58
2023-04-01T11:19:12.047Z,16.54
2023-04-01T11:22:01.165Z,16.32
2023-04-01T11:25:15.002Z,16.31
2023-04-01T11:28:01.399Z,16.23
2023-04-01T11:30:40.978Z,16.18
2023-04-01T11:33:27.343Z,16.15
2023-04-01T11:36:13.876Z,15.67
2023-04-01T11:38:44.703Z,15.17
2023-04-01T11:41:47.349Z,14.82
2023-04-01T11:44:37.618Z,14.02
2023-04-01T11:47:42.856Z,13.05
2023-04-01T11:50:21.426Z,12.03
2023-04-01T11:53:03.006Z,11.40
2023-04-01T11:55:36.947Z,10.97
2023-04-01T11:58:22.606Z,10.76
2023-04-01T12:01:01.112Z,10.72
2023-04-01T12:03:53.300Z,10.65
2023-04-01T12:06:27.621Z,10.60
2023-04-01T12:09:17.033Z,10.55
2023-04-01T12:12:02.261Z,10.46
2023-04-01T12:14:37.387Z,10.49
2023-04-01T12:17:19.558Z,10.58
2023-04-01T12:19:56.152Z,10.72
2023-04-01T12:22:33.764Z,10.82
2023-04-01T12:25:01.064Z,10.94
2023-04-01T12:27:43.284Z,11.05
2023-04-01T12:30:16.191Z,11.15
2023-04-01T12:32:49.513Z,11.17
2023-04-01T12:35:28.809Z,11.03
2023-04-01T12:37:55.842Z,10.89
2023-04-01T12:40:22.860Z,10.73
2023-04-01T12:42:55.416Z,10.63
2023-04-01T12:45:34.954Z,10.53
2023-04-01T12:48:36.605Z,10.52
2023-04-01T12:51:22.476Z,10.55
2023-04-01T12:54:04.569Z,10.52
2023-04-01T12:56:47.435Z,10.57
2023-04-01T12:59:44.345Z,10.58
2023-04-01T13:02:23.421Z,10.59
2023-04-01T13:04:56.409Z,10.60
2023-04-01T13:07:48.196Z,10.54
2023-04-01T13:10:35.624Z,10.53
2023-04-01T13:13:30.304Z,10.60
2023-04-01T13:16:07.958Z,10.74
2023-04-01T13:19:06.279Z,10.95
2023-04-01T13:21:45.602Z,11.13
2023-04-01T13:24:12.540Z,11.31
2023-04-01T13:27:04.528Z,11.48
2023-04-01T13:29:40.271Z,11.55
2023-04-01T13:32:27.700Z,11.79
2023-04-01T13:35:00.542Z,12.09
2023-04-01T13:37:36.086Z,12.33
2023-04-01T13:40:19.504Z,12.64
2023-04-01T13:43:10.167Z,12.87
2023-04-01T13:46:17.564Z,13.29
2023-04-01T13:49:02.327Z,14.00
2023-04-01T13:51:39.858Z,14.52
2023-04-01T13:54:09.579Z,14.59
2023-04-01T13:56:39.542Z,14.52
2023-04-01T13:59:50.106Z,14.74
2023-04-01T14:02:46.354Z,14.60
2023-04-01T14:05:43.354Z,14.64
2023-04-01T14:08:48.385Z,15.00
2023-04-01T14:11:20.490Z,15.21
2023-04-01T14:14:12.070Z,15.49
2023-04-01T14:17:04.447Z,15.65
2023-04-01T14:19:31.402Z,15.71
2023-04-01T14:22:04.846Z,15.85
2023-04-01T14:24:53.868Z,15.75
2023-04-01T14:27:20.855Z,15.68
2023-04-01T14:29:58.333Z,15.71
2023-04-01T14:32:59.946Z,15.48
2023-04-01T14:35:42.024Z,15.65
2023-04-01T14:38:46.506Z,16.06
2023-04-01T14:41:29.080Z,16.17
2023-04-01T14:44:24.335Z,16.37
2023-04-01T14:47:00.103Z,16.68
2023-04-01T14:49:41.740Z,16.71
2023-04-01T14:52:23.549Z,16.92
2023-04-01T14:54:51.943Z,16.67
2023-04-01T14:57:33.255Z,16.29
2023-04-01T15:00:18.064Z,15.87
2023-04-01T15:03:02.498Z,15.87
2023-04-01T15:05:49.462Z,15.67
2023-04-01T15:08:18.684Z,15.23
2023-04-01T15:11:02.315Z,15.09
2023-04-01T15:14:07.995Z,14.79
2023-04-01T15:16:43.209Z,14.72
2023-04-01T15:19:10.042Z,14.76
2023-04-01T15:21:50.866Z,14.84
2023-04-01T15:24:22.960Z,14.78
2023-04-01T15:26:52.860Z,14.83
2023-04-01T15:29:39.083Z,14.73
2023-04-01T15:32:28.785Z,14.59
2023-04-01T15:35:34.223Z,14.28
2023-04-01T15:38:23.454Z,14.10
2023-04-01T15:41:14.716Z,13.85
2023-04-01T15:43:49.764Z,13.58
2023-04-01T15:46:47.945Z,13.24
2023-04-01T15:49:34.098Z,12.01
2023-04-01T15:52:19.086Z,11.26
2023-04-01T15:55:02.604Z,10.47
2023-04-01T15:57:38.482Z,9.79
2023-04-01T16:00:19.916Z,9.41
2023-04-01T16:03:04.863Z,8.93
2023-04-01T16:05:56.737Z,8.60
2023-04-01T16:08:50.531Z,8.22
2023-04-01T16:11:40.096Z,8.06
2023-04-01T16:14:28.652Z,7.81
2023-04-01T16:17:13.935Z,7.71
2023-04-01T16:19:52.447Z,7.65
2023-04-01T16:22:32.287Z,7.62
2023-04-01T16:25:36.234Z,7.58
2023-04-01T16:28:24.976Z,7.53
2023-04-01T16:31:00.560Z,7.55
2023-04-01T16:33:39.599Z,7.57
2023-04-01T16:36:15.503Z,7.55
2023-04-01T16:38:54.440Z,7.61
2023-04-01T16:41:40.171Z,7.40
2023-04-01T16:44:19.585Z,7.44
2023-04-01T16:46:47.889Z,7.49
2023-04-01T16:49:24.978Z,7.44
2023-04-01T16:51:52.732Z,7.50
2023-04-01T16:54:32.576Z,7.44
2023-04-01T16:57:12.037Z,7.47
2023-04-01T17:00:05.506Z,7.50
2023-04-01T17:02:44.435Z,7.54
2023-04-01T17:05:16.949Z,7.57
2023-04-01T17:08:11.280Z,7.54
2023-04-01T17:10:51.608Z,7.57
2023-04-01T17:13:57.352Z,7.58
2023-04-01T17:16:43.144Z,7.63
2023-04-01T17:19:26.582Z,7.60
2023-04-01T17:22:09.179Z,7.54
2023-04-01T17:24:57.443Z,7.50
2023-04-01T17:27:49.677Z,7.49
2023-04-01T17:30:32.176Z,7.47
2023-04-01T17:33:09.657Z,7.47
2023-04-01T17:36:00.167Z,7.40
2023-04-01T17:39:06.058Z,7.37
2023-04-01T17:41:41.773Z,7.33
2023-04-01T17:44:30.593Z,7.25
2023-04-01T17:47:26.195Z,7.22
2023-04-01T17:50:19.458Z,7.15
2023-04-01T17:53:17.717Z,7.15
2023-04-01T17:56:00.222Z,7.13
2023-04-01T17:58:46.027Z,7.09
2023-04-01T18:01:18.053Z,7.04
2023-04-01T18:04:14.306Z,6.98
2023-04-01T18:06:53.100Z,7.01
2023-04-01T18:09:34.193Z,6.95
2023-04-01T18:12:42.101Z,6.97
2023-04-01T18:15:17.827Z,6.96
2023-04-01T18:17:58.691Z,6.99
2023-04-01T18:20:50.034Z,6.98
2023-04-01T18:23:31.999Z,7.00
2023-04-01T18:26:30.648Z,7.03
2023-04-01T18:29:05.286Z,7.06
2023-04-01T18:31:45.497Z,7.04
2023-04-01T18:34:28.356Z,7.06
2023-04-01T18:37:00.630Z,7.03
2023-04-01T18:39:44.457Z,7.01
2023-04-01T18:42:43.162Z,7.04
2023-04-01T18:45:31.779Z,7.04
2023-04-01T18:48:23.747Z,7.11
2023-04-01T18:51:03.491Z,7.09
2023-04-01T18:53:40.886Z,7.17
2023-04-01T18:56:12.621Z,7.14
2023-04-01T18:59:05.292Z,7.22
2023-04-01T19:01:58.994Z,7.24
2023-04-01T19:04:38.553Z,7.27
2023-04-01T19:07:38.045Z,7.29
2023-04-01T19:10:20.410Z,7.33
2023-04-01T19:13:02.734Z,7.38
2023-04-01T19:15:38.532Z,7.41
2023-04-01T19:18:20.751Z,7.47
2023-04-01T19:21:26.747Z,7.48
2023-04-01T19:23:59.904Z,7.49
2023-04-01T19:26:32.872Z,7.45
2023-04-01T19:29:19.482Z,7.46
2023-04-01T19:31:49.375Z,7.42
2023-04-01T19:34:26.054Z,7.41
2023-04-01T19:37:03.451Z,7.44
2023-04-01T19:39:48.693Z,7.43
2023-04-01T19:42:45.166Z,7.42
2023-04-01T19:45:15.263Z,7.38
2023-04-01T19:48:17.527Z,7.38
2023-04-01T19:50:50.241Z,7.37
2023-04-01T19:53:43.290Z,7.33
2023-04-01T19:56:20.775Z,7.34
2023-04-01T19:59:09.508Z,7.33
2023-04-01T20:01:50.230Z,7.35
2023-04-01T20:04:41.451Z,7.33
2023-04-01T20:07:24.750Z,7.27
2023-04-01T20:09:57.613Z,7.25
2023-04-01T20:12:49.184Z,7.18
2023-04-01T20:15:26.574Z,7.14
2023-04-01T20:17:56.304Z,7.11
2023-04-01T20:20:28.416Z,7.11
2023-04-01T20:23:26.353Z,7.14
2023-04-01T20:25:58.594Z,7.17
2023-04-01T20:28:42.984Z,7.26
2023-04-01T20:31:48.825Z,7.27
2023-04-01T20:34:18.817Z,7.45
2023-04-01T20:36:46.002Z,7.52
2023-04-01T20:39:14.251Z,7.51
2023-04-01T20:41:53.233Z,7.56
2023-04-01T20:44:26.347Z,7.56
2023-04-01T20:47:04.264Z,7.58
2023-04-01T20:49:47.585Z,7.62
2023-04-01T20:52:14.516Z,7.63
2023-04-01T20:55:12.512Z,7.59
2023-04-01T20:58:03.675Z,7.59
2023-04-01T21:00:36.814Z,7.53
2023-04-01T21:03:32.341Z,7.45
2023-04-01T21:06:17.195Z,7.38
2023-04-01T21:08:59.330Z,7.40
2023-04-01T21:11:44.662Z,7.37
2023-04-01T21:14:47.923Z,7.37
2023-04-01T21:17:35.764Z,7.35
2023-04-01T21:20:11.814Z,7.40
2023-04-01T21:22:50.868Z,7.43
2023-04-01T21:25:39.756Z,7.46
2023-04-01T21:28:24.940Z,7.47
2023-04-01T21:31:13.142Z,7.49
2023-04-01T21:33:49.411Z,7.55
2023-04-01T21:36:42.002Z,7.66
2023-04-01T21:39:21.296Z,7.69
2023-04-01T21:41:57.087Z,7.70
2023-04-01T21:44:48.633Z,7.68
2023-04-01T21:47:44.166Z,7.66
2023-04-01T21:50:33.662Z,7.63
2023-04-01T21:53:23.376Z,7.55
2023-04-01T21:56:28.250Z,7.51
2023-04-01T21:59:25.659Z,7.47
2023-04-01T22:02:21.296Z,7.41
2023-04-01T22:04:59.979Z,7.32
2023-04-01T22:07:42.195Z,7.32
2023-04-01T22:10:21.005Z,7.24
2023-04-01T22:13:09.454Z,7.19
2023-04-01T22:16:20.652Z,7.14
2023-04-01T22:18:52.037Z,7.02
2023-04-01T22:21:42.174Z,7.03
2023-04-01T22:24:18.273Z,7.03
2023-04-01T22:26:47.009Z,7.04
2023-04-01T22:29:51.460Z,7.04
2023-04-01T22:32:38.652Z,7.03
2023-04-01T22:35:16.469Z,7.05
2023-04-01T22:38:04.111Z,7.02
2023-04-01T22:40:31.069Z,7.08
2023-04-01T22:43:03.463Z,7.08
2023-04-01T22:45:58.289Z,7.08
2023-04-01T22:49:10.909Z,7.03
2023-04-01T22:52:02.842Z,7.04
2023-04-01T22:54:38.940Z,7.03
2023-04-01T22:57:09.735Z,7.03
2023-04-01T22:59:46.207Z,7.02
2023-04-01T23:02:27.353Z,6.99
2023-04-01T23:05:00.458Z,6.97
2023-04-01T23:07:48.081Z,7.04
2023-04-01T23:10:48.764Z,7.04
2023-04-01T23:13:23.828Z,7.03
2023-04-01T23:15:54.331Z,7.04
2023-04-01T23:18:58.431Z,7.08
2023-04-01T23:21:37.043Z,7.09
2023-04-01T23:24:31.984Z,7.04
2023-04-01T23:27:04.488Z,7.04
2023-04-01T23:29:36.622Z,7.02
2023-04-01T23:32:05.474Z,6.99
2023-04-01T23:34:35.011Z,7.03
2023-04-01T23:37:17.263Z,7.06
2023-04-01T23:39:46.764Z,7.01
2023-04-01T23:42:30.504Z,7.00
2023-04-01T23:45:01.968Z,6.94
2023-04-01T23:47:35.073Z,7.06
2023-04-01T23:50:13.360Z,7.12
2023-04-01T23:52:44.783Z,7.19
2023-04-01T23:55:11.664Z,7.25
2023-04-01T23:57:40.137Z,7.32
